Latest Coastal Weather Observations for Stenhouse Bay

IDS60701

Issued at 4:01 am CST Wednesday 29 June 2016 (issued every 10 minutes, with the page automatically refreshed every 10 minutes)

About coastal observations | Map of coastal stations | Coastal observations for SA | Marine services | Other Formats
Station Details ID: 022049 Name: STENHOUSE BAY Lat: -35.28 Lon: 136.94 Height: 42.0 m
Data from the previous 72 hours. | See also: Recent months at Stenhouse Bay
Date/Time
CST
Temp
°C
Wind Pressure Rain since
9am
mm
Weather Cloud Vis
km
Sea
Height
m
Swell
Dir  Spd
kts
Gust
kts
hPa Trend Height
m
Period
s
Dir
29/04:00am 7.7 N 8 10 1022.4 - 0.2 - - - - - - -
29/03:30am 7.5 N 8 10 1022.6 - 0.2 - - - - - - -
29/03:00am 7.5 N 8 10 1022.9 - 0.2 - - - - - - -
29/02:30am 6.8 N 8 10 1023.0 - 0.2 - - - - - - -
29/02:00am 7.1 N 8 9 1023.1 - 0.2 - - - - - - -
29/01:30am 7.4 N 6 7 1023.3 - 0.2 - - - - - - -
29/01:00am 7.5 N 6 7 1023.5 - 0.2 - - - - - - -
29/12:30am 7.6 N 8 9 1023.7 - 0.2 - - - - - - -
29/12:00am 8.0 N 7 9 1023.8 - 0.2 - - - - - - -
 
Date/Time
CST
Temp
°C
Wind Pressure Rain since
9am
mm
Weather Cloud Vis
km
Sea
Height
m
Swell
Dir  Spd
kts
Gust
kts
hPa Trend Height
m
Period
s
Dir
28/11:30pm 8.1 N 7 10 1024.2 - 0.2 - - - - - - -
28/11:00pm 8.3 N 6 8 1024.4 - 0.2 - - - - - - -
28/10:30pm 8.5 N 6 7 1024.6 - 0.2 - - - - - - -
28/10:00pm 8.6 N 6 8 1024.6 - 0.2 - - - - - - -
28/09:30pm 8.8 N 4 6 1024.8 - 0.2 - - - - - - -
28/09:00pm 9.2 NNW 5 7 1024.8 - 0.2 - - - - - - -
28/08:30pm 9.2 N 4 5 1024.8 - 0.2 - - - - - - -
28/08:00pm 9.6 N 4 5 1024.9 - 0.2 - - - - - - -
28/07:30pm 10.6 N 3 5 1024.8 - 0.2 - - - - - - -
28/07:00pm 10.9 NNW 5 6 1024.5 - 0.2 - - - - - - -
28/06:30pm 11.8 NW 7 9 1024.4 - 0.2 - - - - - - -
28/06:00pm 12.1 NNW 8 11 1024.3 - 0.2 - - - - - - -
28/05:30pm 12.8 NNW 9 13 1024.2 - 0.2 - - - - - - -
28/05:00pm 13.7 NNW 10 14 1024.1 - 0.2 - - - - - - -
28/04:30pm 14.8 NNW 12 17 1024.2 - 0.2 - - - - - - -
28/04:00pm 15.2 NW 14 18 1024.2 - 0.2 - - - - - - -
28/03:30pm 15.1 NNW 11 15 1024.2 - 0.2 - - - - - - -
28/03:00pm 14.9 NNW 12 18 1024.2 - 0.2 - - - - - - -
28/02:30pm 15.4 NNW 14 20 1024.3 - 0.2 - - - - - - -
28/02:00pm 15.6 NNW 15 22 1024.5 - 0.2 - - - - - - -
28/01:30pm 16.3 NNW 13 20 1024.6 - 0.2 - - - - - - -
28/01:00pm 15.7 NNW 15 21 1024.9 - 0.2 - - - - - - -
28/12:30pm 15.9 NNW 15 20 1025.1 - 0.2 - - - - - - -
28/12:00pm 15.8 NW 15 22 1025.4 - 0.0 - - - - - - -
28/11:30am 15.5 NW 15 21 1025.7 - 0.0 - - - - - - -
28/11:00am 15.5 NW 13 23 1025.9 - 0.0 - - - - - - -
28/10:30am 15.2 NW 14 20 1025.8 - 0.0 - - - - - - -
28/10:00am 14.9 NW 13 16 1025.8 - 0.0 - - - - - - -
28/09:30am 14.2 NW 13 18 1025.4 - 0.0 - - - - - - -
28/09:00am 13.7 NW 11 15 1025.2 - 1.2 - - - - - - -
28/08:30am 12.8 NW 9 13 1024.9 - 1.2 - - - - - - -
28/08:00am 12.0 NW 9 12 1024.6 - 1.2 - - - - - - -
28/07:30am 11.6 NW 8 10 1024.4 - 1.2 - - - - - - -
28/07:00am 11.6 NNW 8 10 1024.1 - 1.2 - - - - - - -
28/06:30am 11.6 NW 9 11 1023.7 - 1.2 - - - - - - -
28/06:00am 11.7 NW 8 11 1023.3 - 1.2 - - - - - - -
28/05:30am 11.9 NW 8 11 1023.1 - 1.2 - - - - - - -
28/05:00am 11.7 NW 8 11 1022.9 - 1.2 - - - - - - -
28/04:30am 12.0 NW 8 10 1022.8 - 1.2 - - - - - - -
28/04:00am 12.5 NW 7 11 1022.7 - 1.2 - - - - - - -
28/03:30am 12.3 NW 7 10 1022.7 - 1.2 - - - - - - -
28/03:00am 12.2 NW 8 10 1022.9 - 1.2 - - - - - - -
28/02:30am 11.9 NW 7 9 1022.9 - 1.2 - - - - - - -
28/02:00am 12.1 NW 8 10 1022.9 - 1.2 - - - - - - -
28/01:30am 12.4 NW 8 11 1022.9 - 1.2 - - - - - - -
28/01:00am 12.4 NW 8 12 1022.9 - 1.2 - - - - - - -
28/12:30am 12.5 NW 9 12 1023.1 - 1.0 - - - - - - -
28/12:00am 12.0 NW 7 10 1023.1 - 1.0 - - - - - - -
 
Date/Time
CST
Temp
°C
Wind Pressure Rain since
9am
mm
Weather Cloud Vis
km
Sea
Height
m
Swell
Dir  Spd
kts
Gust
kts
hPa Trend Height
m
Period
s
Dir
27/11:30pm 11.5 NW 7 9 1023.1 - 1.0 - - - - - - -
27/11:00pm 11.8 NW 7 9 1023.0 - 1.0 - - - - - - -
27/10:30pm 11.7 NW 7 8 1022.9 - 1.0 - - - - - - -
27/10:00pm 11.7 NW 9 17 1023.1 - 0.8 - - - - - - -
27/09:30pm 11.2 NW 7 10 1022.8 - 0.4 - - - - - - -
27/09:00pm 11.6 WNW 7 9 1022.8 - 0.4 Recent precip. - - - - - -
27/08:30pm 12.0 NW 7 10 1022.7 - 0.2 - - - - - - -
27/08:00pm 11.2 NW 6 7 1022.5 - 0.2 - - - - - - -
27/07:30pm 12.1 NW 6 8 1022.4 - 0.2 - - - - - - -
27/07:00pm 12.4 WNW 9 15 1022.2 - 0.2 - - - - - - -
27/06:30pm 11.6 WNW 6 8 1021.9 - 0.2 - - - - - - -
27/06:00pm 11.9 WNW 7 9 1021.6 - 0.2 - - - - - - -
27/05:30pm 12.3 WNW 7 8 1021.4 - 0.2 - - - - - - -
27/05:00pm 13.8 WNW 7 12 1021.2 - 0.2 - - - - - - -
27/04:30pm 14.4 WNW 5 11 1021.1 - 0.2 - - - - - - -
27/04:00pm 13.9 WNW 6 10 1021.0 - 0.2 - - - - - - -
27/03:30pm 15.1 WNW 10 13 1020.9 - 0.2 - - - - - - -
27/03:00pm 14.7 WNW 8 12 1020.6 - 0.2 Recent precip. - - - - - -
27/02:30pm 13.1 WNW 8 12 1020.6 - 0.2 - - - - - - -
27/02:00pm 15.8 W 11 16 1020.6 - 0.0 - - - - - - -
27/01:30pm 16.2 WSW 10 14 1020.7 - 0.0 - - - - - - -
27/01:00pm 16.3 W 11 18 1020.9 - 0.0 - - - - - - -
27/12:30pm 16.3 W 10 16 1021.2 - 0.0 - - - - - - -
27/12:00pm 16.0 WSW 10 14 1021.5 - 0.0 - - - - - - -
27/11:30am 15.7 WSW 10 15 1021.6 - 0.0 - - - - - - -
27/11:00am 15.5 WSW 10 17 1021.7 - 0.0 - - - - - - -
27/10:30am 15.3 WSW 9 13 1021.6 - 0.0 - - - - - - -
27/10:00am 14.7 WSW 9 12 1021.4 - 0.0 - - - - - - -
27/09:30am 14.0 WSW 10 13 1021.0 - 0.0 - - - - - - -
27/09:00am 13.8 SW 9 13 1020.7 - 3.2 - - - - - - -
27/08:30am 13.3 SW 8 13 1020.4 - 3.2 - - - - - - -
27/08:00am 12.6 SW 7 10 1020.1 - 3.2 - - - - - - -
27/07:30am 12.4 SW 8 11 1019.8 - 3.2 - - - - - - -
27/07:00am 12.2 SW 7 10 1019.5 - 3.2 - - - - - - -
27/06:30am 12.4 SSW 10 14 1019.2 - 3.2 - - - - - - -
27/06:00am 12.4 SSW 10 15 1018.9 - 3.2 - - - - - - -
27/05:30am 12.5 SSW 11 15 1018.5 - 3.2 - - - - - - -
27/05:00am 12.3 SSW 10 14 1018.1 - 3.2 - - - - - - -
27/04:30am 11.8 SW 12 17 1017.9 - 3.2 - - - - - - -
27/04:00am 12.3 SSW 11 15 1017.7 - 3.2 - - - - - - -
27/03:30am 12.1 SSW 12 16 1017.6 - 3.2 - - - - - - -
27/03:00am 12.4 SSW 15 19 1017.3 - 3.2 - - - - - - -
27/02:30am 12.3 SSW 14 19 1017.3 - 3.2 - - - - - - -
27/02:00am 12.2 SSW 15 20 1017.1 - 3.2 - - - - - - -
27/01:30am 12.4 SSW 15 21 1016.9 - 3.2 - - - - - - -
27/01:00am 12.2 SSW 17 22 1016.7 - 3.2 - - - - - - -
27/12:30am 11.9 SSW 17 23 1016.7 - 3.2 - - - - - - -
27/12:00am 11.2 SSW 11 16 1016.6 - 3.0 - - - - - - -
 
Date/Time
CST
Temp
°C
Wind Pressure Rain since
9am
mm
Weather Cloud Vis
km
Sea
Height
m
Swell
Dir  Spd
kts
Gust
kts
hPa Trend Height
m
Period
s
Dir
26/11:30pm 9.9 W 6 7 1016.5 - 3.0 - - - - - - -
26/11:00pm 10.5 W 5 6 1016.4 - 3.0 - - - - - - -
26/10:30pm 10.6 WSW 3 4 1016.4 - 3.0 - - - - - - -
26/10:00pm 11.2 SW 6 9 1016.3 - 2.6 - - - - - - -
26/09:30pm 10.4 WNW 6 7 1016.2 - 2.0 - - - - - - -
26/09:00pm 10.2 WNW 9 13 1015.9 - 2.0 - - - - - - -
26/08:30pm 10.2 NW 7 8 1015.9 - 2.0 - - - - - - -
26/08:00pm 10.3 NW 7 10 1015.7 - 2.0 - - - - - - -
26/07:30pm 10.7 WNW 9 11 1015.5 - 2.0 - - - - - - -
26/07:00pm 10.4 WNW 6 9 1015.5 - 2.0 - - - - - - -
26/06:30pm 10.8 NW 7 10 1015.2 - 2.0 - - - - - - -
26/06:00pm 11.6 NW 7 11 1015.1 - 0.6 Rain - - - - - -
26/05:30pm 12.3 NW 10 14 1014.8 - 0.0 - - - - - - -
26/05:00pm 12.6 NNW 8 12 1014.6 - 0.0 - - - - - - -
26/04:30pm 12.8 NW 10 15 1014.4 - 0.0 - - - - - - -
26/04:00pm 13.1 NW 11 15 1014.3 - 0.0 - - - - - - -
26/03:30pm 13.9 NW 11 16 1014.2 - 0.0 - - - - - - -
26/03:00pm 13.7 NW 12 17 1014.2 - 0.0 - - - - - - -
26/02:30pm 14.2 NNW 11 16 1014.3 - 0.0 - - - - - - -
26/02:00pm 14.3 NW 12 17 1014.6 - 0.0 - - - - - - -
26/01:30pm 13.6 NW 13 17 1014.9 - 0.0 - - - - - - -
26/01:00pm 14.2 NW 11 15 1015.0 - 0.0 - - - - - - -
26/12:30pm 13.6 NW 12 17 1015.3 - 0.0 - - - - - - -
26/12:00pm 13.4 NW 12 17 1015.7 - 0.0 - - - - - - -
26/11:30am 13.4 NW 12 17 1016.2 - 0.0 - - - - - - -
26/11:00am 14.2 NNW 11 15 1016.5 - 0.0 - - - - - - -
26/10:30am 13.3 NNW 12 16 1016.8 - 0.0 - - - - - - -
26/10:00am 12.8 NNW 14 19 1016.8 - 0.0 - - - - - - -
26/09:30am 13.2 NNW 12 17 1016.9 - 0.0 - - - - - - -
26/09:00am 12.3 NNW 9 12 1016.9 - 1.0 - - - - - - -
26/08:30am 11.3 NNW 10 15 1016.9 - 1.0 - - - - - - -
26/08:00am 11.0 NNW 12 17 1016.7 - 1.0 - - - - - - -
26/07:30am 10.6 NNW 8 11 1016.7 - 1.0 - - - - - - -
26/07:00am 9.5 NNW 6 11 1016.7 - 1.0 - - - - - - -
26/06:30am 9.0 N 3 4 1016.7 - 1.0 - - - - - - -
26/06:00am 9.1 NNW 5 7 1016.7 - 1.0 - - - - - - -
26/05:30am 8.7 NNE 3 5 1016.5 - 1.0 - - - - - - -
26/05:00am 9.0 N 4 5 1016.7 - 1.0 - - - - - - -
26/04:30am 9.0 NNW 4 7 1017.0 - 1.0 - - - - - - -

Other Formats:

Comma delimited format used in spreadsheet applications
http://www.bom.gov.au/fwo/IDS60701/IDS60701.95806.axf

JavaScript Object Notation format (JSON) in row-major order
http://www.bom.gov.au/fwo/IDS60701/IDS60701.95806.json